Time;durP1;ratioP1;P1;durP2;ratioP2;P2;SDS_P1;SDS_P2;PMS_P1;PMS_P2;Temp;Humidity;BMP_temperature;BMP_pressure;BME280_temperature;BME280_humidity;BME280_pressure;Samples;Min_cycle;Max_cycle;Signal;HPM_P1;HPM_P2
2022/08/19 00:01:17;;;;;;;;;;;19.00;99.90;;;;;;5052544;28;19909;-77
2022/08/19 00:03:42;;;;;;;;;;;19.00;99.90;;;;;;5051394;28;19909;-77
2022/08/19 00:06:09;;;;;;;;;;;19.00;99.90;;;;;;5052340;28;19952;-77
2022/08/19 00:08:35;;;;;;;;;;;19.00;99.90;;;;;;5053557;28;19917;-77
2022/08/19 00:11:00;;;;;;;;;;;19.00;99.90;;;;;;5052633;28;19912;-77
2022/08/19 00:13:28;;;;;;;;;;;19.00;99.90;;;;;;5046945;28;19909;-77
2022/08/19 00:15:54;;;;;;;;;;;19.00;99.90;;;;;;5046182;28;19909;-77
2022/08/19 00:18:20;;;;;;;;;;;19.00;99.90;;;;;;5037845;28;20003;-77
2022/08/19 00:20:45;;;;;;;;;;;19.10;99.90;;;;;;5052179;28;19998;-77
2022/08/19 00:23:11;;;;;;;;;;;19.00;99.90;;;;;;5051312;28;19916;-77
2022/08/19 00:25:36;;;;;;;;;;;19.00;99.90;;;;;;5052359;28;19970;-77
2022/08/19 00:28:02;;;;;;;;;;;19.00;99.90;;;;;;5052571;28;20003;-77
2022/08/19 00:30:28;;;;;;;;;;;19.00;99.90;;;;;;5052006;28;20328;-77
2022/08/19 00:32:56;;;;;;;;;;;19.00;99.90;;;;;;5051342;28;19924;-77
2022/08/19 00:35:22;;;;;;;;;;;19.00;99.90;;;;;;5051197;28;19916;-77
2022/08/19 00:37:48;;;;;;;;;;;18.90;99.90;;;;;;5052122;28;20003;-77
2022/08/19 00:40:14;;;;;;;;;;;18.90;99.90;;;;;;5052208;28;19909;-77
2022/08/19 00:42:40;;;;;;;;;;;18.90;99.90;;;;;;5050176;28;20393;-77
2022/08/19 00:45:11;;;;;;;;;;;18.80;99.90;;;;;;5051310;28;20011;-76
2022/08/19 00:47:36;;;;;;;;;;;18.60;99.90;;;;;;5051849;28;19916;-76
2022/08/19 00:50:03;;;;;;;;;;;18.50;99.90;;;;;;5051293;28;19909;-76
2022/08/19 00:52:30;;;;;;;;;;;18.40;99.90;;;;;;5051000;28;19909;-76
2022/08/19 00:54:57;;;;;;;;;;;18.30;99.90;;;;;;5051804;28;19909;-77
2022/08/19 00:57:26;;;;;;;;;;;18.30;99.90;;;;;;5051621;28;20350;-77
2022/08/19 00:59:54;;;;;;;;;;;18.20;99.90;;;;;;5051500;28;19943;-76
2022/08/19 01:02:19;;;;;;;;;;;18.30;99.90;;;;;;5052225;28;19909;-76
2022/08/19 01:04:45;;;;;;;;;;;18.30;99.90;;;;;;5051114;28;20275;-77
2022/08/19 01:07:11;;;;;;;;;;;18.40;99.90;;;;;;5051695;28;19912;-77
2022/08/19 01:09:36;;;;;;;;;;;18.30;99.90;;;;;;5051587;28;20357;-77
2022/08/19 01:12:02;;;;;;;;;;;18.20;99.90;;;;;;5051130;28;19948;-76
2022/08/19 01:14:30;;;;;;;;;;;18.10;99.90;;;;;;5050422;28;20221;-76
2022/08/19 01:16:57;;;;;;;;;;;18.10;99.90;;;;;;5051489;28;19908;-76
2022/08/19 01:19:36;;;;;;;;;;;18.20;99.90;;;;;;5051447;28;20336;-76
2022/08/19 01:22:03;;;;;;;;;;;18.30;99.90;;;;;;5050852;28;19909;-76
2022/08/19 01:24:30;;;;;;;;;;;18.20;99.90;;;;;;5050894;28;19909;-76
2022/08/19 01:26:56;;;;;;;;;;;18.10;99.90;;;;;;5051362;28;19916;-77
2022/08/19 01:29:22;;;;;;;;;;;18.20;99.90;;;;;;5051275;28;19908;-76
2022/08/19 01:31:52;;;;;;;;;;;18.20;99.90;;;;;;5047686;28;19917;-76
2022/08/19 01:34:18;;;;;;;;;;;18.20;99.90;;;;;;5049206;28;19913;-76
2022/08/19 01:36:48;;;;;;;;;;;18.10;99.90;;;;;;5051170;28;19908;-76
2022/08/19 01:39:19;;;;;;;;;;;18.10;99.90;;;;;;5051287;28;20382;-76
2022/08/19 01:41:44;;;;;;;;;;;18.30;99.90;;;;;;5050852;28;20577;-76
2022/08/19 01:44:11;;;;;;;;;;;18.20;99.90;;;;;;5049063;28;19932;-77
2022/08/19 01:46:37;;;;;;;;;;;18.10;99.90;;;;;;5045293;28;19912;-76
2022/08/19 01:49:03;;;;;;;;;;;18.10;99.90;;;;;;5052458;28;19915;-76
2022/08/19 01:51:30;;;;;;;;;;;18.10;99.90;;;;;;5051285;28;19913;-77
2022/08/19 01:53:56;;;;;;;;;;;18.10;99.90;;;;;;5051510;28;19909;-76
2022/08/19 01:56:22;;;;;;;;;;;18.10;99.90;;;;;;5050543;28;19944;-76
2022/08/19 01:58:55;;;;;;;;;;;18.10;99.90;;;;;;5052469;28;19997;-76
2022/08/19 02:01:21;;;;;;;;;;;18.00;99.90;;;;;;5051135;28;19909;-76
2022/08/19 02:03:46;;;;;;;;;;;18.00;99.90;;;;;;5053119;28;20389;-76
2022/08/19 02:06:12;;;;;;;;;;;18.00;99.90;;;;;;5054707;28;20035;-77
2022/08/19 02:08:38;;;;;;;;;;;18.00;99.90;;;;;;5054487;28;19916;-77
2022/08/19 02:11:04;;;;;;;;;;;18.00;99.90;;;;;;5054986;28;19912;-76
2022/08/19 02:13:30;;;;;;;;;;;18.00;99.90;;;;;;5053990;28;20443;-76
2022/08/19 02:15:55;;;;;;;;;;;18.00;99.90;;;;;;5054871;28;19908;-76
2022/08/19 02:18:21;;;;;;;;;;;17.90;99.90;;;;;;5054895;28;19915;-77
2022/08/19 02:20:47;;;;;;;;;;;17.90;99.90;;;;;;5055048;28;20202;-76
2022/08/19 02:23:13;;;;;;;;;;;17.90;99.90;;;;;;5053707;28;20377;-77
2022/08/19 02:25:38;;;;;;;;;;;17.90;99.90;;;;;;5054610;28;20003;-77
2022/08/19 02:28:04;;;;;;;;;;;17.80;99.90;;;;;;5054632;28;19916;-77
2022/08/19 02:30:30;;;;;;;;;;;17.90;99.90;;;;;;5054123;28;19917;-77
2022/08/19 02:32:56;;;;;;;;;;;17.90;99.90;;;;;;5054274;28;19959;-77
2022/08/19 02:35:21;;;;;;;;;;;17.90;99.90;;;;;;5053408;28;20039;-77
2022/08/19 02:40:34;;;;;;;;;;;17.80;99.90;;;;;;5054241;28;19962;-76
2022/08/19 02:43:05;;;;;;;;;;;17.90;99.90;;;;;;5052557;28;19916;-76
2022/08/19 02:45:31;;;;;;;;;;;17.80;99.90;;;;;;5054341;28;19967;-77
2022/08/19 02:47:57;;;;;;;;;;;17.90;99.90;;;;;;5052987;28;20255;-77
2022/08/19 02:50:22;;;;;;;;;;;17.90;99.90;;;;;;5053540;28;19934;-77
2022/08/19 02:52:48;;;;;;;;;;;18.00;99.90;;;;;;5053514;28;19909;-76
2022/08/19 02:55:13;;;;;;;;;;;18.00;99.90;;;;;;5050979;28;20298;-77
2022/08/19 02:57:39;;;;;;;;;;;17.90;99.90;;;;;;5054077;28;19909;-76
2022/08/19 03:00:07;;;;;;;;;;;17.80;99.90;;;;;;5053921;28;19963;-76
2022/08/19 03:02:32;;;;;;;;;;;17.90;99.90;;;;;;5048326;28;19920;-77
2022/08/19 03:04:58;;;;;;;;;;;17.90;99.90;;;;;;5052764;28;19909;-77
2022/08/19 03:07:23;;;;;;;;;;;17.90;99.90;;;;;;5051467;28;19931;-76
2022/08/19 03:09:49;;;;;;;;;;;17.90;99.90;;;;;;5051956;28;19913;-77
2022/08/19 03:12:14;;;;;;;;;;;17.90;99.90;;;;;;5053273;28;19958;-77
2022/08/19 03:14:40;;;;;;;;;;;17.90;99.90;;;;;;5053955;28;20270;-77
2022/08/19 03:17:05;;;;;;;;;;;17.80;99.90;;;;;;5053532;28;19913;-77
2022/08/19 03:19:31;;;;;;;;;;;17.80;99.90;;;;;;5053387;28;20414;-77
2022/08/19 03:21:57;;;;;;;;;;;17.90;99.90;;;;;;5053079;28;19962;-77
2022/08/19 03:24:23;;;;;;;;;;;17.90;99.90;;;;;;5053010;28;19955;-77
2022/08/19 03:26:50;;;;;;;;;;;17.90;99.90;;;;;;5052011;28;20219;-77
2022/08/19 03:29:17;;;;;;;;;;;17.80;99.90;;;;;;5052940;28;19912;-77
2022/08/19 03:31:43;;;;;;;;;;;17.80;99.90;;;;;;5052140;28;19919;-77
2022/08/19 03:34:11;;;;;;;;;;;17.80;99.90;;;;;;5052045;28;20350;-77
2022/08/19 03:36:37;;;;;;;;;;;17.80;99.90;;;;;;5048400;28;19940;-77
2022/08/19 03:39:03;;;;;;;;;;;17.80;99.90;;;;;;5053086;28;19909;-77
2022/08/19 03:41:31;;;;;;;;;;;17.80;99.90;;;;;;5052831;28;19909;-77
2022/08/19 03:43:57;;;;;;;;;;;17.80;99.90;;;;;;5052303;28;19984;-77
2022/08/19 03:46:24;;;;;;;;;;;17.80;99.90;;;;;;5053198;28;19909;-76
2022/08/19 03:48:53;;;;;;;;;;;17.90;99.90;;;;;;5051807;28;19912;-77
2022/08/19 03:51:21;;;;;;;;;;;18.00;99.90;;;;;;5052400;28;20298;-77
2022/08/19 03:53:46;;;;;;;;;;;17.90;99.90;;;;;;5052459;28;19963;-76
2022/08/19 03:56:12;;;;;;;;;;;17.80;99.90;;;;;;5053136;28;20328;-77
2022/08/19 03:58:39;;;;;;;;;;;17.80;99.90;;;;;;5051805;28;20339;-77
2022/08/19 04:01:09;;;;;;;;;;;17.80;99.90;;;;;;5052934;28;19909;-77
2022/08/19 04:03:35;;;;;;;;;;;17.80;99.90;;;;;;5050803;28;19916;-77
2022/08/19 04:06:12;;;;;;;;;;;17.90;99.90;;;;;;5052579;28;20373;-76
2022/08/19 04:08:38;;;;;;;;;;;17.90;99.90;;;;;;5052859;28;19917;-76
2022/08/19 04:11:07;;;;;;;;;;;17.90;99.90;;;;;;5052596;28;19913;-76
2022/08/19 04:13:33;;;;;;;;;;;17.90;99.90;;;;;;5050291;28;19908;-76
2022/08/19 04:15:59;;;;;;;;;;;17.80;99.90;;;;;;5051186;28;19913;-76
2022/08/19 04:18:25;;;;;;;;;;;17.70;99.90;;;;;;5052745;28;20309;-76
2022/08/19 04:20:50;;;;;;;;;;;17.70;99.90;;;;;;5047226;28;19955;-76
2022/08/19 04:23:16;;;;;;;;;;;17.70;99.90;;;;;;5051605;28;20370;-76
2022/08/19 04:25:43;;;;;;;;;;;17.80;99.90;;;;;;5052190;28;20263;-76
2022/08/19 04:28:09;;;;;;;;;;;17.70;99.90;;;;;;5052580;28;20054;-76
2022/08/19 04:30:39;;;;;;;;;;;17.80;99.90;;;;;;5051903;28;19975;-76
2022/08/19 04:33:04;;;;;;;;;;;17.80;99.90;;;;;;5050564;28;20001;-75
2022/08/19 04:35:40;;;;;;;;;;;17.80;99.90;;;;;;5050531;28;20393;-76
2022/08/19 04:38:06;;;;;;;;;;;17.80;99.90;;;;;;5052360;28;19913;-76
2022/08/19 04:43:16;;;;;;;;;;;17.80;99.90;;;;;;5053346;28;19915;-77
2022/08/19 04:45:43;;;;;;;;;;;17.80;99.90;;;;;;5053673;28;20007;-77
2022/08/19 04:48:09;;;;;;;;;;;17.80;99.90;;;;;;5053517;28;19999;-77
2022/08/19 04:50:35;;;;;;;;;;;17.80;99.90;;;;;;5051349;28;19991;-77
2022/08/19 04:53:00;;;;;;;;;;;17.90;99.90;;;;;;5053136;28;19968;-77
2022/08/19 04:55:26;;;;;;;;;;;17.80;99.90;;;;;;5051418;28;20044;-77
2022/08/19 04:57:52;;;;;;;;;;;17.80;99.90;;;;;;5053310;28;20345;-77
2022/08/19 05:00:17;;;;;;;;;;;17.90;99.90;;;;;;5053773;28;19913;-77
2022/08/19 05:02:43;;;;;;;;;;;17.90;99.90;;;;;;5054464;28;20358;-77
2022/08/19 05:05:08;;;;;;;;;;;17.90;99.90;;;;;;5052327;28;19958;-77
2022/08/19 05:07:34;;;;;;;;;;;17.90;99.90;;;;;;5052233;28;19952;-75
2022/08/19 05:09:59;;;;;;;;;;;17.90;99.90;;;;;;5052767;28;19921;-78
2022/08/19 05:12:26;;;;;;;;;;;17.90;99.90;;;;;;5053290;28;19913;-78
2022/08/19 05:14:52;;;;;;;;;;;17.90;99.90;;;;;;5057380;28;19909;-76
2022/08/19 05:17:17;;;;;;;;;;;18.00;99.90;;;;;;5052475;28;20371;-77
2022/08/19 05:22:34;;;;;;;;;;;18.00;99.90;;;;;;5052012;28;19971;-78
2022/08/19 05:25:05;;;;;;;;;;;18.00;99.90;;;;;;5052580;28;20007;-77
2022/08/19 05:27:30;;;;;;;;;;;18.00;99.90;;;;;;5052467;28;19967;-77
2022/08/19 05:29:56;;;;;;;;;;;18.00;99.90;;;;;;5053314;28;19909;-77
2022/08/19 05:32:23;;;;;;;;;;;18.00;99.90;;;;;;5053089;28;20423;-77
2022/08/19 05:34:48;;;;;;;;;;;18.00;99.90;;;;;;5051468;28;20336;-77
2022/08/19 05:37:14;;;;;;;;;;;18.00;99.90;;;;;;5051357;28;19916;-76
2022/08/19 05:39:40;;;;;;;;;;;18.00;99.90;;;;;;5051799;28;19920;-77
2022/08/19 05:42:07;;;;;;;;;;;18.00;99.90;;;;;;5051487;28;19908;-77
2022/08/19 05:44:34;;;;;;;;;;;18.00;99.90;;;;;;5054823;28;19940;-77
2022/08/19 05:47:00;;;;;;;;;;;18.00;99.90;;;;;;5055316;28;19916;-78
2022/08/19 05:49:27;;;;;;;;;;;18.00;99.90;;;;;;5054667;28;20354;-78
2022/08/19 05:51:54;;;;;;;;;;;18.00;99.90;;;;;;5049999;28;19913;-76
2022/08/19 05:54:21;;;;;;;;;;;18.00;99.90;;;;;;5050931;28;19913;-76
2022/08/19 05:56:47;;;;;;;;;;;18.10;99.90;;;;;;5051674;28;19909;-76
2022/08/19 05:59:15;;;;;;;;;;;18.10;99.90;;;;;;5050782;28;19951;-77
2022/08/19 06:01:41;;;;;;;;;;;18.10;99.90;;;;;;5051445;28;19913;-76
2022/08/19 06:04:07;;;;;;;;;;;18.10;99.90;;;;;;5050907;28;19916;-77
2022/08/19 06:06:34;;;;;;;;;;;18.10;99.90;;;;;;5051393;28;19909;-77
2022/08/19 06:09:00;;;;;;;;;;;18.10;99.90;;;;;;5038207;28;19928;-77
2022/08/19 06:11:40;;;;;;;;;;;18.10;99.90;;;;;;5037810;28;19971;-77
2022/08/19 06:14:08;;;;;;;;;;;18.10;99.90;;;;;;5034239;28;19913;-77
2022/08/19 06:16:38;;;;;;;;;;;18.10;99.90;;;;;;5030308;28;20285;-77
2022/08/19 06:19:06;;;;;;;;;;;18.20;99.90;;;;;;5034035;28;19956;-77
2022/08/19 06:21:32;;;;;;;;;;;18.20;99.90;;;;;;5034967;28;19917;-76
2022/08/19 06:23:58;;;;;;;;;;;18.30;99.90;;;;;;5037941;28;20327;-77
2022/08/19 06:26:24;;;;;;;;;;;18.20;99.90;;;;;;5032259;28;19985;-77
2022/08/19 06:28:50;;;;;;;;;;;18.30;99.90;;;;;;5031689;28;19920;-76
2022/08/19 06:31:17;;;;;;;;;;;18.20;99.90;;;;;;5053378;28;20293;-78
2022/08/19 06:33:43;;;;;;;;;;;18.20;99.90;;;;;;5050393;28;19908;-77
2022/08/19 06:36:16;;;;;;;;;;;18.30;99.90;;;;;;5055948;28;19956;-77
2022/08/19 06:38:41;;;;;;;;;;;18.30;99.90;;;;;;5056015;28;19912;-78
2022/08/19 06:41:07;;;;;;;;;;;18.20;99.90;;;;;;5060143;28;20050;-77
2022/08/19 06:43:32;;;;;;;;;;;18.20;99.90;;;;;;5059707;28;19909;-78
2022/08/19 06:45:58;;;;;;;;;;;18.30;99.90;;;;;;5059536;28;19909;-77
2022/08/19 06:48:24;;;;;;;;;;;18.30;99.90;;;;;;5057951;28;19915;-77
2022/08/19 06:50:51;;;;;;;;;;;18.30;99.90;;;;;;5041885;28;19931;-77
2022/08/19 06:53:18;;;;;;;;;;;18.30;99.90;;;;;;5056633;28;19955;-77
2022/08/19 06:55:44;;;;;;;;;;;18.40;99.90;;;;;;5058266;28;19908;-77
2022/08/19 06:58:10;;;;;;;;;;;18.30;99.90;;;;;;5058929;28;19920;-77
2022/08/19 07:00:36;;;;;;;;;;;18.40;99.90;;;;;;5054814;28;19909;-77
2022/08/19 07:03:02;;;;;;;;;;;18.40;99.90;;;;;;5051618;28;19948;-77
2022/08/19 07:05:27;;;;;;;;;;;18.40;99.90;;;;;;5053437;28;19917;-77
2022/08/19 07:07:53;;;;;;;;;;;18.40;99.90;;;;;;5060887;28;19913;-77
2022/08/19 07:10:19;;;;;;;;;;;18.40;99.90;;;;;;5056020;28;19920;-77
2022/08/19 07:12:44;;;;;;;;;;;18.50;99.90;;;;;;5054869;28;19908;-77
2022/08/19 07:15:10;;;;;;;;;;;18.50;99.90;;;;;;5055318;28;20378;-77
2022/08/19 07:17:38;;;;;;;;;;;18.50;99.90;;;;;;5060016;28;19909;-77
2022/08/19 07:20:04;;;;;;;;;;;18.60;99.90;;;;;;5053259;28;19910;-77
2022/08/19 07:22:30;;;;;;;;;;;18.60;99.90;;;;;;5057512;28;19909;-77
2022/08/19 07:24:56;;;;;;;;;;;18.70;99.90;;;;;;5059338;28;19916;-77
2022/08/19 07:27:21;;;;;;;;;;;18.70;99.90;;;;;;5059516;28;19912;-77
2022/08/19 07:29:47;;;;;;;;;;;18.80;99.90;;;;;;5060086;28;20351;-77
2022/08/19 07:32:12;;;;;;;;;;;18.80;99.90;;;;;;5051625;28;19920;-77
2022/08/19 07:34:38;;;;;;;;;;;18.80;99.90;;;;;;5057956;28;19909;-77
2022/08/19 07:37:05;;;;;;;;;;;18.80;99.90;;;;;;5051402;28;19980;-77
2022/08/19 07:39:31;;;;;;;;;;;18.70;99.90;;;;;;5058717;28;20289;-77
2022/08/19 07:41:58;;;;;;;;;;;18.70;99.90;;;;;;5056559;28;19935;-77
2022/08/19 07:44:23;;;;;;;;;;;18.60;99.90;;;;;;5057776;28;19955;-78
2022/08/19 07:46:51;;;;;;;;;;;18.60;99.90;;;;;;5056779;28;19909;-77
2022/08/19 07:49:18;;;;;;;;;;;18.60;99.90;;;;;;5049414;28;19913;-77
2022/08/19 07:51:51;;;;;;;;;;;18.60;99.90;;;;;;5042093;28;19917;-77
2022/08/19 07:54:17;;;;;;;;;;;18.50;99.90;;;;;;5054725;28;19916;-77
2022/08/19 07:56:42;;;;;;;;;;;18.60;99.90;;;;;;5056010;28;19913;-77
2022/08/19 07:59:08;;;;;;;;;;;18.50;99.90;;;;;;5053876;28;19919;-77
2022/08/19 08:01:34;;;;;;;;;;;18.50;99.90;;;;;;5049250;28;19938;-77
2022/08/19 08:09:31;;;;;;;;;;;18.40;99.90;;;;;;5056109;28;19923;-77
2022/08/19 08:11:59;;;;;;;;;;;18.40;99.90;;;;;;5053473;28;20004;-77
2022/08/19 08:14:26;;;;;;;;;;;18.40;99.90;;;;;;5052416;28;19908;-77
2022/08/19 08:16:52;;;;;;;;;;;18.50;99.90;;;;;;5055687;28;20398;-77
2022/08/19 08:19:21;;;;;;;;;;;18.50;99.90;;;;;;5053216;28;20111;-77
2022/08/19 08:21:47;;;;;;;;;;;18.50;99.90;;;;;;5054516;28;19952;-79
2022/08/19 08:24:13;;;;;;;;;;;18.40;99.90;;;;;;5055448;28;19931;-77
2022/08/19 08:26:39;;;;;;;;;;;18.40;99.90;;;;;;5053793;28;19952;-77
2022/08/19 08:29:07;;;;;;;;;;;18.50;99.90;;;;;;5052652;28;20298;-77
2022/08/19 08:31:33;;;;;;;;;;;18.40;99.90;;;;;;5057457;28;19923;-77
2022/08/19 08:33:59;;;;;;;;;;;18.50;99.90;;;;;;5055031;28;19909;-77
2022/08/19 08:36:25;;;;;;;;;;;18.50;99.90;;;;;;5055932;28;19916;-77
2022/08/19 08:38:51;;;;;;;;;;;18.50;99.90;;;;;;5057757;28;19913;-77
2022/08/19 08:41:22;;;;;;;;;;;18.60;99.90;;;;;;5056892;28;19999;-77
2022/08/19 08:43:50;;;;;;;;;;;18.70;99.90;;;;;;5048358;28;19917;-77
2022/08/19 08:46:37;;;;;;;;;;;18.60;99.90;;;;;;5054577;28;19909;-77
2022/08/19 08:49:24;;;;;;;;;;;18.70;99.90;;;;;;5047875;28;19909;-77
2022/08/19 08:52:00;;;;;;;;;;;18.60;99.90;;;;;;5053860;28;19976;-77
2022/08/19 08:54:29;;;;;;;;;;;18.50;99.90;;;;;;5050263;28;19908;-77
2022/08/19 08:56:55;;;;;;;;;;;18.40;99.90;;;;;;5046599;28;19915;-77
2022/08/19 08:59:24;;;;;;;;;;;18.20;99.90;;;;;;5050973;28;20328;-76
2022/08/19 09:01:49;;;;;;;;;;;18.20;99.90;;;;;;5050404;28;20431;-78
2022/08/19 09:04:15;;;;;;;;;;;18.20;99.90;;;;;;5045921;28;19913;-76
2022/08/19 09:07:10;;;;;;;;;;;18.30;99.90;;;;;;5050702;28;20003;-76
2022/08/19 09:09:39;;;;;;;;;;;18.30;99.90;;;;;;5043101;28;19917;-77
2022/08/19 09:12:09;;;;;;;;;;;18.30;99.90;;;;;;5050640;28;19928;-77
2022/08/19 09:14:41;;;;;;;;;;;18.40;99.90;;;;;;5050329;28;19944;-77
2022/08/19 09:17:07;;;;;;;;;;;18.50;99.90;;;;;;5051291;28;19909;-77
2022/08/19 09:19:34;;;;;;;;;;;18.70;99.90;;;;;;5051255;28;19932;-77
2022/08/19 09:22:00;;;;;;;;;;;18.60;99.90;;;;;;5049855;28;20431;-77
2022/08/19 09:24:26;;;;;;;;;;;18.70;99.90;;;;;;5050334;28;19909;-77
2022/08/19 09:26:51;;;;;;;;;;;18.80;99.90;;;;;;5051263;28;19916;-77
2022/08/19 09:29:17;;;;;;;;;;;18.80;99.90;;;;;;5049807;28;19909;-77
2022/08/19 09:31:42;;;;;;;;;;;18.80;99.90;;;;;;5050139;28;19966;-77
2022/08/19 09:34:08;;;;;;;;;;;18.80;99.90;;;;;;5049445;28;19963;-77
2022/08/19 09:36:35;;;;;;;;;;;18.70;99.90;;;;;;5054648;28;19916;-77
2022/08/19 09:39:03;;;;;;;;;;;18.80;99.90;;;;;;5051047;28;20010;-77
2022/08/19 09:41:29;;;;;;;;;;;18.70;99.90;;;;;;5048058;28;20369;-77
2022/08/19 09:43:58;;;;;;;;;;;18.70;99.90;;;;;;5049678;28;19909;-77
2022/08/19 09:46:25;;;;;;;;;;;18.80;99.90;;;;;;5051330;28;19909;-77
2022/08/19 09:48:51;;;;;;;;;;;18.70;99.90;;;;;;5051002;28;19919;-77
2022/08/19 09:51:19;;;;;;;;;;;18.80;99.90;;;;;;5048506;28;19996;-77
2022/08/19 09:53:46;;;;;;;;;;;18.80;99.90;;;;;;5047414;28;19963;-77
2022/08/19 09:56:11;;;;;;;;;;;18.80;99.90;;;;;;5051404;28;20362;-77
2022/08/19 09:58:37;;;;;;;;;;;18.80;99.90;;;;;;5051615;28;19955;-77
2022/08/19 10:01:04;;;;;;;;;;;18.80;99.90;;;;;;5045014;28;19909;-77
2022/08/19 10:03:30;;;;;;;;;;;18.70;99.90;;;;;;5050317;28;19909;-77
2022/08/19 10:05:56;;;;;;;;;;;18.80;99.90;;;;;;5060535;28;20262;-77
2022/08/19 10:08:23;;;;;;;;;;;18.80;99.90;;;;;;5056684;28;20058;-77
2022/08/19 10:10:50;;;;;;;;;;;18.90;99.90;;;;;;5055307;28;19913;-77
2022/08/19 10:13:17;;;;;;;;;;;19.00;99.90;;;;;;5055215;28;19913;-76
2022/08/19 10:15:42;;;;;;;;;;;19.00;99.90;;;;;;5054865;28;19908;-77
2022/08/19 10:18:08;;;;;;;;;;;18.90;99.90;;;;;;5054609;28;20000;-77
2022/08/19 10:20:35;;;;;;;;;;;18.90;99.90;;;;;;5054561;28;19920;-76
2022/08/19 10:23:01;;;;;;;;;;;18.90;99.90;;;;;;5053867;28;19913;-76
2022/08/19 10:25:27;;;;;;;;;;;18.90;99.90;;;;;;5054182;28;19954;-76
2022/08/19 10:27:52;;;;;;;;;;;18.80;99.90;;;;;;5054592;28;19908;-76
2022/08/19 10:30:18;;;;;;;;;;;18.70;99.90;;;;;;5054480;28;19915;-76
2022/08/19 10:32:45;;;;;;;;;;;18.60;99.90;;;;;;5054026;28;20003;-76
2022/08/19 10:35:12;;;;;;;;;;;18.60;99.90;;;;;;5062449;28;19909;-81
2022/08/19 10:37:37;;;;;;;;;;;18.60;99.90;;;;;;5054165;28;19979;-79
2022/08/19 10:40:04;;;;;;;;;;;18.60;99.90;;;;;;5054642;28;20350;-76
2022/08/19 10:42:31;;;;;;;;;;;18.70;99.90;;;;;;5055507;28;20026;-77
2022/08/19 10:44:56;;;;;;;;;;;18.80;99.90;;;;;;5054405;28;20277;-77
2022/08/19 10:47:22;;;;;;;;;;;18.90;99.90;;;;;;5054373;28;19916;-79
2022/08/19 10:52:32;;;;;;;;;;;18.90;99.90;;;;;;5053830;28;19982;-77
2022/08/19 10:57:42;;;;;;;;;;;19.00;99.90;;;;;;5050031;28;20020;-77
2022/08/19 11:00:08;;;;;;;;;;;19.20;99.90;;;;;;5054277;28;20373;-77
2022/08/19 11:02:33;;;;;;;;;;;19.20;99.90;;;;;;5053716;28;19913;-77
2022/08/19 11:04:59;;;;;;;;;;;19.30;99.90;;;;;;5054307;28;20325;-77
2022/08/19 11:07:26;;;;;;;;;;;19.30;99.90;;;;;;5054394;28;19909;-77
2022/08/19 11:09:51;;;;;;;;;;;19.40;99.90;;;;;;5055122;28;19973;-76
2022/08/19 11:12:17;;;;;;;;;;;19.50;99.90;;;;;;5054281;28;20007;-77
2022/08/19 11:14:42;;;;;;;;;;;19.50;99.90;;;;;;5047553;28;19913;-80
2022/08/19 11:17:08;;;;;;;;;;;19.60;99.90;;;;;;5053675;28;20400;-78
2022/08/19 11:19:34;;;;;;;;;;;19.70;99.90;;;;;;5054341;28;20311;-78
2022/08/19 11:22:01;;;;;;;;;;;19.70;99.90;;;;;;5053531;28;19955;-78
2022/08/19 11:24:27;;;;;;;;;;;19.80;99.90;;;;;;5053542;28;19935;-78
2022/08/19 11:26:58;;;;;;;;;;;19.90;99.90;;;;;;5053825;28;19955;-81
2022/08/19 11:29:25;;;;;;;;;;;19.80;99.90;;;;;;5053755;28;20075;-77
2022/08/19 11:31:51;;;;;;;;;;;19.90;99.90;;;;;;5054664;28;19917;-79
2022/08/19 11:34:21;;;;;;;;;;;19.80;99.90;;;;;;5049616;28;19909;-77
2022/08/19 11:36:47;;;;;;;;;;;19.80;99.90;;;;;;5052788;28;19909;-77
2022/08/19 11:39:22;;;;;;;;;;;19.80;99.90;;;;;;5050953;28;20487;-77
2022/08/19 11:41:47;;;;;;;;;;;19.80;99.90;;;;;;5045709;28;19909;-77
2022/08/19 11:44:14;;;;;;;;;;;19.80;99.90;;;;;;5052792;28;19909;-77
2022/08/19 11:46:40;;;;;;;;;;;19.90;99.90;;;;;;5053120;28;20266;-79
2022/08/19 11:49:09;;;;;;;;;;;19.90;99.90;;;;;;5044233;28;20286;-77
2022/08/19 11:51:35;;;;;;;;;;;20.00;99.90;;;;;;5036706;28;19917;-77
2022/08/19 11:54:01;;;;;;;;;;;20.00;99.90;;;;;;5043078;28;20012;-77
2022/08/19 11:56:27;;;;;;;;;;;20.10;99.90;;;;;;5050294;28;19956;-77
2022/08/19 11:58:53;;;;;;;;;;;20.10;99.90;;;;;;5050419;28;19913;-78
2022/08/19 12:01:20;;;;;;;;;;;20.20;99.90;;;;;;5050108;28;19916;-78
2022/08/19 12:03:47;;;;;;;;;;;20.20;99.90;;;;;;5050583;28;19985;-77
2022/08/19 12:06:14;;;;;;;;;;;20.10;99.90;;;;;;5053241;28;19916;-78
2022/08/19 12:08:40;;;;;;;;;;;20.10;99.90;;;;;;5052562;28;19916;-79
2022/08/19 12:11:09;;;;;;;;;;;20.20;99.90;;;;;;5052950;28;20251;-80
2022/08/19 12:13:36;;;;;;;;;;;20.40;99.90;;;;;;5054959;28;19909;-78
2022/08/19 12:16:06;;;;;;;;;;;20.40;99.90;;;;;;5052376;28;19909;-77
2022/08/19 12:18:32;;;;;;;;;;;20.30;99.90;;;;;;5044727;28;20282;-79
2022/08/19 12:21:01;;;;;;;;;;;20.40;99.90;;;;;;5045363;28;19916;-79
2022/08/19 12:23:26;;;;;;;;;;;20.40;99.90;;;;;;5048651;28;19919;-78
2022/08/19 12:25:52;;;;;;;;;;;20.50;99.90;;;;;;5052291;28;20282;-79
2022/08/19 12:28:21;;;;;;;;;;;20.40;99.90;;;;;;5051708;28;19908;-77
2022/08/19 12:30:47;;;;;;;;;;;20.50;99.90;;;;;;5051727;28;19920;-80
2022/08/19 12:33:13;;;;;;;;;;;20.50;99.90;;;;;;5050364;28;19909;-80
2022/08/19 12:35:43;;;;;;;;;;;20.70;99.90;;;;;;5055607;28;19913;-78
2022/08/19 12:38:09;;;;;;;;;;;20.80;99.90;;;;;;5051656;28;19909;-78
2022/08/19 12:40:35;;;;;;;;;;;21.10;99.90;;;;;;5051934;28;20011;-79
2022/08/19 12:43:00;;;;;;;;;;;21.20;99.90;;;;;;5051523;28;19920;-77
2022/08/19 12:45:26;;;;;;;;;;;21.30;99.90;;;;;;5051157;28;19909;-77
2022/08/19 12:47:52;;;;;;;;;;;21.30;99.90;;;;;;5052060;28;19908;-78
2022/08/19 12:50:19;;;;;;;;;;;21.20;99.90;;;;;;5051622;28;19971;-78
2022/08/19 12:52:44;;;;;;;;;;;21.10;99.90;;;;;;5051139;28;19993;-81
2022/08/19 12:55:11;;;;;;;;;;;21.00;99.90;;;;;;5054087;28;19933;-77
2022/08/19 12:57:37;;;;;;;;;;;20.90;99.90;;;;;;5054295;28;20368;-77
2022/08/19 13:00:07;;;;;;;;;;;20.90;99.90;;;;;;5051623;28;19913;-81
2022/08/19 13:02:34;;;;;;;;;;;20.90;99.90;;;;;;5052063;28;19959;-78
2022/08/19 13:05:00;;;;;;;;;;;20.80;99.90;;;;;;5050788;28;19955;-77
2022/08/19 13:07:25;;;;;;;;;;;20.80;99.90;;;;;;5051002;28;19956;-78
2022/08/19 13:09:51;;;;;;;;;;;20.60;99.90;;;;;;5051434;28;19913;-80
2022/08/19 13:12:20;;;;;;;;;;;20.60;99.90;;;;;;5050851;28;20003;-77
2022/08/19 13:14:50;;;;;;;;;;;20.60;99.90;;;;;;5050263;28;20006;-76
2022/08/19 13:17:16;;;;;;;;;;;20.60;99.90;;;;;;5051021;28;19909;-76
2022/08/19 13:19:41;;;;;;;;;;;20.40;99.90;;;;;;5052147;28;20376;-78
2022/08/19 13:22:07;;;;;;;;;;;20.20;99.90;;;;;;5055890;28;19909;-77
2022/08/19 13:24:33;;;;;;;;;;;20.10;99.90;;;;;;5050159;28;19916;-77
2022/08/19 13:26:59;;;;;;;;;;;19.90;99.90;;;;;;5050228;28;19909;-77
2022/08/19 13:34:52;;;;;;;;;;;19.80;99.90;;;;;;5041432;28;19932;-77
2022/08/19 13:37:40;;;;;;;;;;;19.70;99.90;;;;;;5051919;28;20346;-81
2022/08/19 13:40:03;;;;;;;;;;;19.80;99.90;;;;;;5054894;28;19915;-78
2022/08/19 13:42:29;;;;;;;;;;;19.80;99.90;;;;;;5057210;28;19909;-77
2022/08/19 13:44:55;;;;;;;;;;;19.70;99.90;;;;;;5056258;28;20015;-78
2022/08/19 13:47:20;;;;;;;;;;;19.70;99.90;;;;;;5058245;28;19956;-78
2022/08/19 13:49:46;;;;;;;;;;;19.60;99.90;;;;;;5059374;28;19919;-80
2022/08/19 13:52:11;;;;;;;;;;;19.60;99.90;;;;;;5057563;28;20205;-78
2022/08/19 13:54:37;;;;;;;;;;;19.60;99.90;;;;;;5056657;28;19971;-78
2022/08/19 13:57:02;;;;;;;;;;;19.50;99.90;;;;;;5056736;28;20267;-80
2022/08/19 13:59:28;;;;;;;;;;;19.40;99.90;;;;;;5053014;28;19955;-78
2022/08/19 14:01:57;;;;;;;;;;;19.20;99.90;;;;;;5054975;28;19909;-79
2022/08/19 14:04:22;;;;;;;;;;;19.30;99.90;;;;;;5058487;28;19909;-79
2022/08/19 14:06:48;;;;;;;;;;;19.30;99.90;;;;;;5068253;28;20441;-78
2022/08/19 14:09:14;;;;;;;;;;;19.90;99.90;;;;;;5058595;28;20003;-78
2022/08/19 14:11:39;;;;;;;;;;;20.30;99.90;;;;;;5058025;28;19921;-77
2022/08/19 14:14:05;;;;;;;;;;;20.20;99.90;;;;;;5057357;28;19909;-77
2022/08/19 14:16:30;;;;;;;;;;;19.90;99.90;;;;;;5057805;28;19955;-81
2022/08/19 14:18:56;;;;;;;;;;;19.70;99.90;;;;;;5056312;28;19908;-80
2022/08/19 14:21:23;;;;;;;;;;;19.70;99.90;;;;;;5056567;28;19909;-77
2022/08/19 14:23:49;;;;;;;;;;;19.60;99.90;;;;;;5056095;28;20301;-82
2022/08/19 14:26:16;;;;;;;;;;;19.60;99.90;;;;;;5056748;28;19916;-77
2022/08/19 14:28:42;;;;;;;;;;;19.70;99.90;;;;;;5049829;28;19908;-78
2022/08/19 14:31:11;;;;;;;;;;;19.80;99.90;;;;;;5056827;28;20015;-78
2022/08/19 14:33:37;;;;;;;;;;;20.00;99.90;;;;;;5044642;28;20156;-78
2022/08/19 14:36:03;;;;;;;;;;;20.60;99.90;;;;;;5056016;28;19909;-77
2022/08/19 14:38:31;;;;;;;;;;;20.20;99.90;;;;;;5061252;28;19909;-77